Observation data for Saint Lawrence on 12/08/2019      Previous  Date       Current Mesonet Observations  Soil Data  Daily Summary Page  Observations in Plain Language
KST1 080600Z 19010KT 11/03 A3008 RMK A01 T01060026  RH  058%=      5-min Rain = 0
KST1 080605Z 19010KT 11/03 A3009 RMK A01 T01070026  RH  058%=      5-min Rain = 0
KST1 080610Z 19011KT 11/03 A3009 RMK A01 T01070026  RH  058%=      5-min Rain = 0
KST1 080615Z 19010KT 11/03 A3009 RMK A01 T01070026  RH  058%=      5-min Rain = 0
KST1 080620Z 19010KT 11/03 A3009 RMK A01 T01060026  RH  059%=      5-min Rain = 0
KST1 080625Z 19010KT 10/03 A3008 RMK A01 T01040026  RH  059%=      5-min Rain = 0
KST1 080630Z 19010KT 10/03 A3008 RMK A01 T01030026  RH  060%=      5-min Rain = 0
KST1 080635Z 18010KT 10/03 A3008 RMK A01 T01030026  RH  060%=      5-min Rain = 0
KST1 080640Z 18010KT 10/03 A3008 RMK A01 T01010026  RH  060%=      5-min Rain = 0
KST1 080645Z 18009KT 10/03 A3007 RMK A01 T00980025  RH  061%=      5-min Rain = 0
KST1 080650Z 18009KT 10/03 A3007 RMK A01 T00950025  RH  062%=      5-min Rain = 0
KST1 080655Z 18009KT 09/03 A3006 RMK A01 T00930025  RH  063%=      5-min Rain = 0
KST1 080700Z 17009KT 09/03 A3006 RMK A01 T00920025  RH  064%=      5-min Rain = 0
KST1 080705Z 17009KT 09/03 A3005 RMK A01 T00900025  RH  064%=      5-min Rain = 0
KST1 080710Z 17009KT 09/03 A3005 RMK A01 T00900025  RH  064%=      5-min Rain = 0
KST1 080715Z 17008KT 09/02 A3005 RMK A01 T00880024  RH  065%=      5-min Rain = 0
KST1 080720Z 17009KT 09/03 A3005 RMK A01 T00880025  RH  065%=      5-min Rain = 0
KST1 080725Z 17008KT 09/02 A3004 RMK A01 T00860024  RH  066%=      5-min Rain = 0
KST1 080730Z 17009KT 09/02 A3004 RMK A01 T00860024  RH  066%=      5-min Rain = 0
KST1 080735Z 17010KT 09/03 A3003 RMK A01 T00870025  RH  066%=      5-min Rain = 0
KST1 080740Z 17010KT 09/03 A3003 RMK A01 T00890026  RH  065%=      5-min Rain = 0
KST1 080745Z 17009KT 09/03 A3003 RMK A01 T00900026  RH  065%=      5-min Rain = 0
KST1 080750Z 17008KT 09/03 A3003 RMK A01 T00880026  RH  066%=      5-min Rain = 0
KST1 080755Z 18008KT 09/03 A3003 RMK A01 T00860025  RH  066%=      5-min Rain = 0
KST1 080800Z 18007KT 08/02 A3004 RMK A01 T00840024  RH  067%=      5-min Rain = 0
KST1 080805Z 18007KT 08/02 A3004 RMK A01 T00810022  RH  067%=      5-min Rain = 0
KST1 080810Z 18007KT 08/02 A3003 RMK A01 T00780021  RH  068%=      5-min Rain = 0
KST1 080815Z 18007KT 08/02 A3003 RMK A01 T00770021  RH  069%=      5-min Rain = 0
KST1 080820Z 18007KT 08/02 A3003 RMK A01 T00750020  RH  069%=      5-min Rain = 0
KST1 080825Z 18007KT 08/02 A3003 RMK A01 T00760022  RH  069%=      5-min Rain = 0
KST1 080830Z 17008KT 08/02 A3003 RMK A01 T00790023  RH  069%=      5-min Rain = 0
KST1 080835Z 17008KT 08/02 A3002 RMK A01 T00790023  RH  069%=      5-min Rain = 0
KST1 080840Z 17009KT 08/03 A3002 RMK A01 T00830026  RH  068%=      5-min Rain = 0
KST1 080845Z 17008KT 08/03 A3002 RMK A01 T00830025  RH  067%=      5-min Rain = 0
KST1 080850Z 17008KT 08/03 A3002 RMK A01 T00820025  RH  068%=      5-min Rain = 0
KST1 080855Z 18008KT 08/03 A3002 RMK A01 T00820025  RH  068%=      5-min Rain = 0
KST1 080900Z 18007KT 08/03 A3002 RMK A01 T00820025  RH  068%=      5-min Rain = 0
KST1 080905Z 19006KT 08/03 A3002 RMK A01 T00820025  RH  068%=      5-min Rain = 0
KST1 080910Z 19006KT 08/02 A3002 RMK A01 T00820024  RH  068%=      5-min Rain = 0
KST1 080915Z 19006KT 08/02 A3002 RMK A01 T00790024  RH  069%=      5-min Rain = 0
KST1 080920Z 19006KT 08/03 A3002 RMK A01 T00810025  RH  069%=      5-min Rain = 0
KST1 080925Z 19006KT 08/03 A3001 RMK A01 T00810026  RH  069%=      5-min Rain = 0
KST1 080930Z 19007KT 09/03 A3001 RMK A01 T00850028  RH  068%=      5-min Rain = 0
KST1 080935Z 19007KT 09/03 A3001 RMK A01 T00890029  RH  067%=      5-min Rain = 0
KST1 080940Z 19007KT 09/03 A3001 RMK A01 T00890029  RH  067%=      5-min Rain = 0
KST1 080945Z 19008KT 09/03 A3001 RMK A01 T00880029  RH  067%=      5-min Rain = 0
KST1 080950Z 20008KT 09/03 A3001 RMK A01 T00900030  RH  067%=      5-min Rain = 0
KST1 080955Z 19007KT 09/03 A30 RMK A01 T00880028  RH  067%=      5-min Rain = 0
KST1 081000Z 19007KT 08/03 A3001 RMK A01 T00830027  RH  069%=      5-min Rain = 0
KST1 081005Z 19008KT 08/03 A3001 RMK A01 T00840027  RH  068%=      5-min Rain = 0
KST1 081010Z 18008KT 07/02 A30 RMK A01 T00730021  RH  071%=      5-min Rain = 0
KST1 081015Z 18007KT 07/02 A30 RMK A01 T00710024  RH  073%=      5-min Rain = 0
KST1 081020Z 18007KT 07/02 A30 RMK A01 T00710023  RH  073%=      5-min Rain = 0
KST1 081025Z 19007KT 07/02 A2999 RMK A01 T00710024  RH  073%=      5-min Rain = 0
KST1 081030Z 19007KT 07/03 A30 RMK A01 T00740026  RH  073%=      5-min Rain = 0
KST1 081035Z 19007KT 08/03 A30 RMK A01 T00770027  RH  071%=      5-min Rain = 0
KST1 081040Z 19007KT 08/03 A30 RMK A01 T00780028  RH  071%=      5-min Rain = 0
KST1 081045Z 19008KT 08/03 A30 RMK A01 T00800029  RH  071%=      5-min Rain = 0
KST1 081050Z 19008KT 09/03 A30 RMK A01 T00860032  RH  069%=      5-min Rain = 0
KST1 081055Z 19007KT 08/03 A30 RMK A01 T00840030  RH  070%=      5-min Rain = 0
KST1 081100Z 19007KT 08/03 A30 RMK A01 T00810029  RH  071%=      5-min Rain = 0
KST1 081105Z 19007KT 08/03 A30 RMK A01 T00810030  RH  071%=      5-min Rain = 0
KST1 081110Z 19007KT 08/03 A30 RMK A01 T00830030  RH  070%=      5-min Rain = 0
KST1 081115Z 19005KT 08/03 A30 RMK A01 T00780027  RH  071%=      5-min Rain = 0
KST1 081120Z 18006KT 07/02 A2999 RMK A01 T00710024  RH  073%=      5-min Rain = 0
KST1 081125Z 18006KT 07/02 A2999 RMK A01 T00650021  RH  075%=      5-min Rain = 0
KST1 081130Z 18007KT 06/02 A2999 RMK A01 T00620021  RH  076%=      5-min Rain = 0
KST1 081135Z 19006KT 06/02 A2999 RMK A01 T00620022  RH  077%=      5-min Rain = 0
KST1 081140Z 19007KT 07/03 A2999 RMK A01 T00660026  RH  076%=      5-min Rain = 0
KST1 081145Z 19007KT 07/03 A2999 RMK A01 T00680026  RH  076%=      5-min Rain = 0
KST1 081150Z 19008KT 07/03 A2999 RMK A01 T00690026  RH  075%=      5-min Rain = 0
KST1 081155Z 19008KT 07/03 A2999 RMK A01 T00720029  RH  075%=      5-min Rain = 0
KST1 081200Z 20007KT 07/03 A2999 RMK A01 T00740029  RH  074%=      5-min Rain = 0
KST1 081205Z 20008KT 08/03 A2999 RMK A01 T00760030  RH  074%=      5-min Rain = 0
KST1 081210Z 20009KT 08/03 A2999 RMK A01 T00780031  RH  073%=      5-min Rain = 0
KST1 081215Z 20009KT 08/03 A2999 RMK A01 T00780030  RH  073%=      5-min Rain = 0
KST1 081220Z 20009KT 08/03 A2999 RMK A01 T00770030  RH  073%=      5-min Rain = 0
KST1 081225Z 20008KT 08/03 A2999 RMK A01 T00770031  RH  073%=      5-min Rain = 0
KST1 081230Z 20008KT 08/03 A2998 RMK A01 T00770031  RH  074%=      5-min Rain = 0
KST1 081235Z 20009KT 08/03 A2998 RMK A01 T00770032  RH  074%=      5-min Rain = 0
KST1 081240Z 20009KT 08/03 A2999 RMK A01 T00790032  RH  073%=      5-min Rain = 0
KST1 081245Z 20009KT 08/03 A2999 RMK A01 T00790032  RH  073%=      5-min Rain = 0
KST1 081250Z 20010KT 08/03 A2998 RMK A01 T00810034  RH  073%=      5-min Rain = 0
KST1 081255Z 20010KT 08/03 A2999 RMK A01 T00830034  RH  072%=      5-min Rain = 0
KST1 081300Z 20010KT 08/04 A2999 RMK A01 T00830035  RH  072%=      5-min Rain = 0
KST1 081305Z 20010KT 08/04 A2999 RMK A01 T00840035  RH  072%=      5-min Rain = 0
KST1 081310Z 20010KT 08/03 A2999 RMK A01 T00840034  RH  072%=      5-min Rain = 0
KST1 081315Z 20009KT 08/03 A2999 RMK A01 T00820034  RH  072%=      5-min Rain = 0
KST1 081320Z 20009KT 08/03 A2999 RMK A01 T00820034  RH  073%=      5-min Rain = 0
KST1 081325Z 20008KT 08/03 A30 RMK A01 T00820034  RH  073%=      5-min Rain = 0
KST1 081330Z 21008KT 08/03 A30 RMK A01 T00810034  RH  073%=      5-min Rain = 0
KST1 081335Z 20008KT 09/04 A30 RMK A01 T00850036  RH  072%=      5-min Rain = 0
KST1 081340Z 20008KT 09/04 A30 RMK A01 T00870037  RH  072%=      5-min Rain = 0
KST1 081345Z 20007KT 09/04 A30 RMK A01 T00900037  RH  071%=      5-min Rain = 0
KST1 081350Z 20006KT 09/04 A30 RMK A01 T00890037  RH  070%=      5-min Rain = 0
KST1 081355Z 20007KT 09/04 A30 RMK A01 T00870036  RH  071%=      5-min Rain = 0
KST1 081400Z 20007KT 09/04 A30 RMK A01 T00890037  RH  071%=      5-min Rain = 0
KST1 081405Z 20007KT 09/04 A3001 RMK A01 T00910038  RH  070%=      5-min Rain = 0
KST1 081410Z 21006KT 09/04 A3001 RMK A01 T00900038  RH  071%=      5-min Rain = 0
KST1 081415Z 21006KT 09/04 A3001 RMK A01 T00880038  RH  072%=      5-min Rain = 0
KST1 081420Z 20006KT 09/04 A30 RMK A01 T00900039  RH  071%=      5-min Rain = 0
KST1 081425Z 20006KT 09/04 A30 RMK A01 T00930040  RH  070%=      5-min Rain = 0
KST1 081430Z 20005KT 10/04 A30 RMK A01 T00950040  RH  070%=      5-min Rain = 0
KST1 081435Z 20006KT 10/04 A30 RMK A01 T00970041  RH  069%=      5-min Rain = 0
KST1 081440Z 20006KT 10/04 A30 RMK A01 T01000042  RH  068%=      5-min Rain = 0
KST1 081445Z 20007KT 10/04 A30 RMK A01 T01020042  RH  067%=      5-min Rain = 0
KST1 081450Z 19009KT 10/04 A2999 RMK A01 T01030042  RH  066%=      5-min Rain = 0
KST1 081455Z 19008KT 11/04 A2999 RMK A01 T01060043  RH  066%=      5-min Rain = 0
KST1 081500Z 19009KT 11/04 A2999 RMK A01 T01080043  RH  065%=      5-min Rain = 0
KST1 081505Z 20009KT 11/04 A30 RMK A01 T01110044  RH  064%=      5-min Rain = 0
KST1 081510Z 20010KT 12/05 A30 RMK A01 T01160045  RH  062%=      5-min Rain = 0
KST1 081515Z 20010KT 12/05 A30 RMK A01 T01200045  RH  061%=      5-min Rain = 0
KST1 081520Z 20010KT 12/04 A2999 RMK A01 T01230044  RH  059%=      5-min Rain = 0
KST1 081525Z 20010KT 13/04 A2999 RMK A01 T01260044  RH  058%=      5-min Rain = 0
KST1 081530Z 20010KT 13/05 A2999 RMK A01 T01290045  RH  057%=      5-min Rain = 0
KST1 081535Z 20011KT 13/05 A2999 RMK A01 T01340045  RH  055%=      5-min Rain = 0
KST1 081540Z 20011KT 14/05 A2999 RMK A01 T01370045  RH  054%=      5-min Rain = 0
KST1 081545Z 19012KT 14/04 A2999 RMK A01 T01390044  RH  054%=      5-min Rain = 0
KST1 081550Z 19012KT 14/04 A2999 RMK A01 T01420044  RH  052%=      5-min Rain = 0
KST1 081555Z 19013KT 14/05 A2999 RMK A01 T01440045  RH  052%=      5-min Rain = 0
KST1 081600Z 20013KT 15/05 A2999 RMK A01 T01460045  RH  051%=      5-min Rain = 0
KST1 081605Z 19013KT 15/05 A2999 RMK A01 T01490045  RH  051%=      5-min Rain = 0
KST1 081610Z 20012G17KT 15/05 A2999 RMK A01 T01530046  RH  049%=      5-min Rain = 0
KST1 081615Z 20011KT 16/05 A2999 RMK A01 T01560045  RH  048%=      5-min Rain = 0
KST1 081620Z 20011KT 16/05 A2999 RMK A01 T01590046  RH  047%=      5-min Rain = 0
KST1 081625Z 20011KT 16/05 A2999 RMK A01 T01640046  RH  046%=      5-min Rain = 0
KST1 081630Z 20012KT 17/04 A2999 RMK A01 T01680044  RH  044%=      5-min Rain = 0
KST1 081635Z 21013G18KT 17/04 A2999 RMK A01 T01720043  RH  043%=      5-min Rain = 0
KST1 081640Z 21012KT 18/04 A2999 RMK A01 T01760044  RH  042%=      5-min Rain = 0
KST1 081645Z 21012KT 18/04 A2999 RMK A01 T01800043  RH  041%=      5-min Rain = 0
KST1 081650Z 21013KT 18/04 A2999 RMK A01 T01820042  RH  040%=      5-min Rain = 0
KST1 081655Z 21014KT 18/04 A2998 RMK A01 T01830041  RH  040%=      5-min Rain = 0
KST1 081700Z 21013KT 19/04 A2998 RMK A01 T01850041  RH  039%=      5-min Rain = 0
KST1 081705Z 22013KT 19/04 A2998 RMK A01 T01870041  RH  039%=      5-min Rain = 0
KST1 081710Z 22011KT 19/04 A2998 RMK A01 T01940044  RH  038%=      5-min Rain = 0
KST1 081715Z 22013KT 20/04 A2998 RMK A01 T01970042  RH  037%=      5-min Rain = 0
KST1 081720Z 22013KT 20/04 A2998 RMK A01 T01950041  RH  037%=      5-min Rain = 0
KST1 081725Z 22012KT 19/04 A2997 RMK A01 T01940041  RH  037%=      5-min Rain = 0
KST1 081730Z 21010G15KT 20/04 A2997 RMK A01 T01960041  RH  037%=      5-min Rain = 0
KST1 081735Z 21012KT 20/04 A2997 RMK A01 T01980041  RH  036%=      5-min Rain = 0
KST1 081740Z 22011KT 20/04 A2997 RMK A01 T01990040  RH  035%=      5-min Rain = 0
KST1 081745Z 21010KT 20/04 A2997 RMK A01 T02040043  RH  035%=      5-min Rain = 0
KST1 081750Z 22011KT 21/04 A2996 RMK A01 T02050042  RH  035%=      5-min Rain = 0
KST1 081755Z 21012KT 21/04 A2996 RMK A01 T02080042  RH  034%=      5-min Rain = 0
KST1 081800Z 22014KT 21/04 A2996 RMK A01 T02120041  RH  033%=      5-min Rain = 0
KST1 081805Z 22013G18KT 22/04 A2996 RMK A01 T02150041  RH  032%=      5-min Rain = 0
KST1 081810Z 22012KT 22/04 A2995 RMK A01 T02150042  RH  033%=      5-min Rain = 0
KST1 081815Z 22013KT 22/04 A2995 RMK A01 T02160041  RH  032%=      5-min Rain = 0
KST1 081820Z 23013KT 22/04 A2995 RMK A01 T02160040  RH  032%=      5-min Rain = 0
KST1 081825Z 23012KT 22/04 A2995 RMK A01 T02200041  RH  032%=      5-min Rain = 0
KST1 081830Z 23013KT 22/04 A2995 RMK A01 T02220041  RH  031%=      5-min Rain = 0
KST1 081835Z 23013KT 22/04 A2994 RMK A01 T02220041  RH  031%=      5-min Rain = 0
KST1 081840Z 24013G18KT 23/04 A2994 RMK A01 T02280041  RH  030%=      5-min Rain = 0
KST1 081845Z 24015KT 23/04 A2993 RMK A01 T02280040  RH  030%=      5-min Rain = 0
KST1 081850Z 23013KT 23/04 A2993 RMK A01 T02320042  RH  029%=      5-min Rain = 0
KST1 081855Z 22015KT 23/04 A2992 RMK A01 T02300041  RH  029%=      5-min Rain = 0
KST1 081900Z 23015G20KT 23/04 A2992 RMK A01 T02320041  RH  029%=      5-min Rain = 0
KST1 081905Z 22014G19KT 24/04 A2991 RMK A01 T02370042  RH  028%=      5-min Rain = 0
KST1 081910Z 22015G22KT 23/04 A2991 RMK A01 T02320040  RH  029%=      5-min Rain = 0
KST1 081915Z 23016G22KT 23/04 A299 RMK A01 T02310040  RH  029%=      5-min Rain = 0
KST1 081920Z 24014G20KT 24/04 A299 RMK A01 T02380043  RH  028%=      5-min Rain = 0
KST1 081925Z 24017G24KT 25/04 A299 RMK A01 T02460042  RH  027%=      5-min Rain = 0
KST1 081930Z 24016G24KT 25/04 A299 RMK A01 T02490042  RH  026%=      5-min Rain = 0
KST1 081935Z 24018G24KT 25/04 A2989 RMK A01 T02510041  RH  026%=      5-min Rain = 0
KST1 081940Z 24019G26KT 25/04 A2988 RMK A01 T02490036  RH  025%=      5-min Rain = 0
KST1 081945Z 25020G27KT 25/03 A2988 RMK A01 T02470029  RH  025%=      5-min Rain = 0
KST1 081950Z 25018G23KT 25/03 A2988 RMK A01 T02490029  RH  024%=      5-min Rain = 0
KST1 081955Z 25019G25KT 25/03 A2988 RMK A01 T02490027  RH  024%=      5-min Rain = 0
KST1 082000Z 25019G25KT 25/02 A2988 RMK A01 T02490023  RH  023%=      5-min Rain = 0
KST1 082005Z 25021G26KT 25/02 A2988 RMK A01 T02480020  RH  023%=      5-min Rain = 0
KST1 082010Z 25019G25KT 25/02 A2987 RMK A01 T02500024  RH  023%=      5-min Rain = 0
KST1 082015Z 25020G26KT 25/03 A2987 RMK A01 T02520026  RH  023%=      5-min Rain = 0
KST1 082020Z 27018KT 25/03 A2987 RMK A01 T02520026  RH  023%=      5-min Rain = 0
KST1 082025Z 25018KT 25/03 A2988 RMK A01 T02520026  RH  023%=      5-min Rain = 0
KST1 082030Z 26019G25KT 25/03 A2988 RMK A01 T02530027  RH  023%=      5-min Rain = 0
KST1 082035Z 25017G24KT 25/03 A2987 RMK A01 T02510027  RH  024%=      5-min Rain = 0
KST1 082040Z 26017G22KT 25/03 A2988 RMK A01 T02520028  RH  024%=      5-min Rain = 0
KST1 082045Z 26020G26KT 25/03 A2987 RMK A01 T02530028  RH  024%=      5-min Rain = 0
KST1 082050Z 26020G25KT 25/03 A2987 RMK A01 T02520029  RH  024%=      5-min Rain = 0
KST1 082055Z 26020G25KT 25/03 A2987 RMK A01 T02540031  RH  024%=      5-min Rain = 0
KST1 082100Z 26020G25KT 26/03 A2987 RMK A01 T02550032  RH  024%=      5-min Rain = 0
KST1 082105Z 26021G30KT 26/03 A2987 RMK A01 T02550034  RH  024%=      5-min Rain = 0
KST1 082110Z 26018G23KT 26/04 A2987 RMK A01 T02550035  RH  024%=      5-min Rain = 0
KST1 082115Z 25017G22KT 26/04 A2987 RMK A01 T02550036  RH  024%=      5-min Rain = 0
KST1 082120Z 26020G26KT 26/04 A2986 RMK A01 T02550035  RH  024%=      5-min Rain = 0
KST1 082125Z 26020G28KT 25/03 A2986 RMK A01 T02520034  RH  025%=      5-min Rain = 0
KST1 082130Z 26017KT 26/04 A2986 RMK A01 T02550035  RH  024%=      5-min Rain = 0
KST1 082135Z 26020G25KT 26/04 A2986 RMK A01 T02560035  RH  024%=      5-min Rain = 0
KST1 082140Z 25020G27KT 26/04 A2986 RMK A01 T02560036  RH  024%=      5-min Rain = 0
KST1 082145Z 26020G27KT 26/04 A2986 RMK A01 T02550037  RH  025%=      5-min Rain = 0
KST1 082150Z 26022G27KT 26/04 A2986 RMK A01 T02560038  RH  025%=      5-min Rain = 0
KST1 082155Z 25021G26KT 26/04 A2986 RMK A01 T02550037  RH  025%=      5-min Rain = 0
KST1 082200Z 26021G29KT 25/04 A2986 RMK A01 T02510036  RH  025%=      5-min Rain = 0
KST1 082205Z 26020G28KT 25/04 A2986 RMK A01 T02500037  RH  025%=      5-min Rain = 0
KST1 082210Z 27020G26KT 25/04 A2986 RMK A01 T02490037  RH  025%=      5-min Rain = 0
KST1 082215Z 26018G27KT 25/04 A2986 RMK A01 T02480036  RH  026%=      5-min Rain = 0
KST1 082220Z 26016KT 25/04 A2987 RMK A01 T02470035  RH  026%=      5-min Rain = 0
KST1 082225Z 26015G20KT 25/04 A2987 RMK A01 T02460035  RH  026%=      5-min Rain = 0
KST1 082230Z 25011G17KT 25/04 A2987 RMK A01 T02450036  RH  026%=      5-min Rain = 0
KST1 082235Z 25014KT 25/04 A2986 RMK A01 T02450036  RH  026%=      5-min Rain = 0
KST1 082240Z 25012G17KT 24/04 A2986 RMK A01 T02430036  RH  026%=      5-min Rain = 0
KST1 082245Z 26013KT 24/04 A2986 RMK A01 T02420037  RH  027%=      5-min Rain = 0
KST1 082250Z 25013G18KT 24/04 A2986 RMK A01 T02420037  RH  027%=      5-min Rain = 0
KST1 082255Z 25011KT 24/04 A2986 RMK A01 T02420038  RH  027%=      5-min Rain = 0
KST1 082300Z 25010KT 24/04 A2986 RMK A01 T02410038  RH  027%=      5-min Rain = 0
KST1 082305Z 25011KT 24/04 A2986 RMK A01 T02400039  RH  027%=      5-min Rain = 0
KST1 082310Z 24010KT 24/04 A2985 RMK A01 T02370040  RH  028%=      5-min Rain = 0
KST1 082315Z 24011KT 24/04 A2985 RMK A01 T02360040  RH  028%=      5-min Rain = 0
KST1 082320Z 24013KT 23/04 A2986 RMK A01 T02340041  RH  029%=      5-min Rain = 0
KST1 082325Z 24013KT 23/04 A2986 RMK A01 T02320041  RH  029%=      5-min Rain = 0
KST1 082330Z 24013KT 23/04 A2986 RMK A01 T02300041  RH  030%=      5-min Rain = 0
KST1 082335Z 24012KT 23/04 A2986 RMK A01 T02280041  RH  030%=      5-min Rain = 0
KST1 082340Z 25010KT 23/04 A2986 RMK A01 T02260041  RH  030%=      5-min Rain = 0
KST1 082345Z 24010G15KT 23/04 A2986 RMK A01 T02260041  RH  030%=      5-min Rain = 0
KST1 082350Z 25011G16KT 23/04 A2986 RMK A01 T02290041  RH  030%=      5-min Rain = 0
KST1 082355Z 25010KT 23/04 A2986 RMK A01 T02280041  RH  030%=      5-min Rain = 0
KST1 090000Z 25010KT 22/04 A2986 RMK A01 T02230042  RH  031%=      5-min Rain = 0
KST1 090005Z 25009KT 22/04 A2986 RMK A01 T02210042  RH  031%=      5-min Rain = 0
KST1 090010Z 25009KT 22/04 A2986 RMK A01 T02170042  RH  032%=      5-min Rain = 0
KST1 090015Z 25010KT 22/04 A2986 RMK A01 T02160042  RH  033%=      5-min Rain = 0
KST1 090020Z 24010KT 21/04 A2986 RMK A01 T02140043  RH  033%=      5-min Rain = 0
KST1 090025Z 24011KT 21/04 A2986 RMK A01 T02120043  RH  033%=      5-min Rain = 0
KST1 090030Z 23011KT 21/04 A2986 RMK A01 T02120043  RH  033%=      5-min Rain = 0
KST1 090035Z 23012KT 21/04 A2986 RMK A01 T02110043  RH  034%=      5-min Rain = 0
KST1 090040Z 23012KT 21/04 A2986 RMK A01 T02100043  RH  034%=      5-min Rain = 0
KST1 090045Z 23012KT 21/04 A2986 RMK A01 T02100043  RH  034%=      5-min Rain = 0
KST1 090050Z 23011KT 21/04 A2986 RMK A01 T02080043  RH  034%=      5-min Rain = 0
KST1 090055Z 24011KT 21/04 A2986 RMK A01 T02080043  RH  034%=      5-min Rain = 0
KST1 090100Z 24011KT 21/04 A2987 RMK A01 T02060043  RH  035%=      5-min Rain = 0
KST1 090105Z 24011KT 21/04 A2987 RMK A01 T02050043  RH  035%=      5-min Rain = 0
KST1 090110Z 24011KT 20/04 A2987 RMK A01 T02040044  RH  035%=      5-min Rain = 0
KST1 090115Z 24012KT 20/04 A2987 RMK A01 T02030044  RH  036%=      5-min Rain = 0
KST1 090120Z 24012KT 20/04 A2987 RMK A01 T02020044  RH  036%=      5-min Rain = 0
KST1 090125Z 24013KT 20/05 A2987 RMK A01 T02040045  RH  036%=      5-min Rain = 0
KST1 090130Z 24013KT 21/05 A2988 RMK A01 T02050046  RH  036%=      5-min Rain = 0
KST1 090135Z 25014KT 21/05 A2988 RMK A01 T02070048  RH  036%=      5-min Rain = 0
KST1 090140Z 24014KT 21/05 A2988 RMK A01 T02090050  RH  036%=      5-min Rain = 0
KST1 090145Z 25015KT 21/05 A2988 RMK A01 T02100051  RH  036%=      5-min Rain = 0
KST1 090150Z 25015KT 21/05 A2988 RMK A01 T02110053  RH  036%=      5-min Rain = 0
KST1 090155Z 25014KT 21/05 A2987 RMK A01 T02110053  RH  036%=      5-min Rain = 0
KST1 090200Z 25014KT 21/05 A2988 RMK A01 T02110054  RH  036%=      5-min Rain = 0
KST1 090205Z 25014KT 21/06 A2988 RMK A01 T02110055  RH  036%=      5-min Rain = 0
KST1 090210Z 25013KT 21/06 A2988 RMK A01 T02090055  RH  037%=      5-min Rain = 0
KST1 090215Z 25014G19KT 21/06 A2988 RMK A01 T02090055  RH  037%=      5-min Rain = 0
KST1 090220Z 25014KT 21/06 A2988 RMK A01 T02080055  RH  037%=      5-min Rain = 0
KST1 090225Z 25015G21KT 21/06 A2988 RMK A01 T02090056  RH  037%=      5-min Rain = 0
KST1 090230Z 25016KT 21/06 A2988 RMK A01 T02110056  RH  037%=      5-min Rain = 0
KST1 090235Z 25015KT 21/06 A2988 RMK A01 T02080056  RH  037%=      5-min Rain = 0
KST1 090240Z 25016G21KT 21/06 A2988 RMK A01 T02090056  RH  037%=      5-min Rain = 0
KST1 090245Z 25015KT 21/06 A2988 RMK A01 T02080056  RH  038%=      5-min Rain = 0
KST1 090250Z 25015KT 21/06 A2988 RMK A01 T02070056  RH  038%=      5-min Rain = 0
KST1 090255Z 25015G20KT 21/06 A2988 RMK A01 T02070056  RH  038%=      5-min Rain = 0
KST1 090300Z 25015KT 21/06 A2988 RMK A01 T02070056  RH  038%=      5-min Rain = 0
KST1 090305Z 26015KT 21/06 A2988 RMK A01 T02080056  RH  038%=      5-min Rain = 0
KST1 090310Z 26014KT 21/06 A2988 RMK A01 T02070056  RH  038%=      5-min Rain = 0
KST1 090315Z 26014KT 21/06 A2987 RMK A01 T02060055  RH  038%=      5-min Rain = 0
KST1 090320Z 26013KT 21/06 A2987 RMK A01 T02050055  RH  038%=      5-min Rain = 0
KST1 090325Z 26012KT 20/06 A2987 RMK A01 T02030055  RH  038%=      5-min Rain = 0
KST1 090330Z 26013G18KT 21/05 A2987 RMK A01 T02050054  RH  038%=      5-min Rain = 0
KST1 090335Z 26012KT 20/05 A2987 RMK A01 T02030054  RH  038%=      5-min Rain = 0
KST1 090340Z 26012KT 20/05 A2987 RMK A01 T02020054  RH  038%=      5-min Rain = 0
KST1 090345Z 26011KT 20/05 A2987 RMK A01 T02010053  RH  039%=      5-min Rain = 0
KST1 090350Z 26011KT 20/05 A2988 RMK A01 T01990053  RH  039%=      5-min Rain = 0
KST1 090355Z 26011KT 20/05 A2988 RMK A01 T01980053  RH  039%=      5-min Rain = 0
KST1 090400Z 26010KT 20/05 A2988 RMK A01 T01970053  RH  039%=      5-min Rain = 0
KST1 090405Z 26009KT 19/05 A2987 RMK A01 T01940053  RH  040%=      5-min Rain = 0
KST1 090410Z 26009KT 19/05 A2987 RMK A01 T01920053  RH  041%=      5-min Rain = 0
KST1 090415Z 26008KT 19/05 A2987 RMK A01 T01900052  RH  041%=      5-min Rain = 0
KST1 090420Z 25008KT 19/05 A2987 RMK A01 T01880052  RH  041%=      5-min Rain = 0
KST1 090425Z 24008KT 19/05 A2988 RMK A01 T01850051  RH  042%=      5-min Rain = 0
KST1 090430Z 21008KT 18/05 A2988 RMK A01 T01810052  RH  043%=      5-min Rain = 0
KST1 090435Z 19009KT 18/05 A2988 RMK A01 T01800052  RH  043%=      5-min Rain = 0
KST1 090440Z 20009KT 18/05 A2988 RMK A01 T01790052  RH  044%=      5-min Rain = 0
KST1 090445Z 23010KT 18/05 A2988 RMK A01 T01770052  RH  044%=      5-min Rain = 0
KST1 090450Z 24010KT 18/05 A2988 RMK A01 T01810052  RH  043%=      5-min Rain = 0
KST1 090455Z 23009KT 18/05 A2989 RMK A01 T01790052  RH  044%=      5-min Rain = 0
KST1 090500Z 21007KT 17/05 A2989 RMK A01 T01740052  RH  045%=      5-min Rain = 0
KST1 090505Z 21007KT 17/05 A2988 RMK A01 T01730052  RH  046%=      5-min Rain = 0
KST1 090510Z 21009KT 17/05 A2988 RMK A01 T01730052  RH  045%=      5-min Rain = 0
KST1 090515Z 22010KT 18/05 A2988 RMK A01 T01750053  RH  045%=      5-min Rain = 0
KST1 090520Z 21009KT 17/05 A2989 RMK A01 T01740053  RH  045%=      5-min Rain = 0
KST1 090525Z 21007KT 17/05 A2989 RMK A01 T01700052  RH  046%=      5-min Rain = 0
KST1 090530Z 21006KT 17/05 A2989 RMK A01 T01670052  RH  047%=      5-min Rain = 0
KST1 090535Z 21006KT 16/05 A2989 RMK A01 T01640052  RH  048%=      5-min Rain = 0
KST1 090540Z 21006KT 16/05 A2988 RMK A01 T01620052  RH  049%=      5-min Rain = 0
KST1 090545Z 21007KT 16/05 A2988 RMK A01 T01620052  RH  049%=      5-min Rain = 0
KST1 090550Z 21007KT 16/05 A2988 RMK A01 T01610052  RH  049%=      5-min Rain = 0
KST1 090555Z 21007KT 16/05 A2989 RMK A01 T01600051  RH  049%=      5-min Rain = 0

Page generated in 0.009 seconds.